createdAt,value
2022-12-24T00:01:05.093Z,100529.97
2022-12-24T00:03:33.155Z,100519.91
2022-12-24T00:06:03.971Z,100531.50
2022-12-24T00:08:30.839Z,100525.38
2022-12-24T00:10:58.767Z,100529.97
2022-12-24T00:13:25.881Z,100521.69
2022-12-24T00:15:52.784Z,100523.25
2022-12-24T00:18:19.731Z,100529.00
2022-12-24T00:20:50.273Z,100529.00
2022-12-24T00:23:18.139Z,100536.44
2022-12-24T00:25:45.390Z,100536.63
2022-12-24T00:28:13.757Z,100537.56
2022-12-24T00:30:42.509Z,100540.34
2022-12-24T00:33:10.261Z,100534.03
2022-12-24T00:35:39.286Z,100541.59
2022-12-24T00:38:06.986Z,100536.38
2022-12-24T00:40:33.941Z,100540.72
2022-12-24T00:43:01.065Z,100533.28
2022-12-24T00:45:28.224Z,100523.28
2022-12-24T00:47:55.443Z,100520.88
2022-12-24T00:50:22.387Z,100519.44
2022-12-24T00:52:49.280Z,100519.06
2022-12-24T00:55:16.243Z,100519.97
2022-12-24T00:57:43.378Z,100514.38
2022-12-24T01:00:10.873Z,100511.16
2022-12-24T01:02:38.047Z,100509.59
2022-12-24T01:05:11.741Z,100508.25
2022-12-24T01:07:45.003Z,100498.81
2022-12-24T01:10:14.774Z,100502.34
2022-12-24T01:12:42.295Z,100497.75
2022-12-24T01:15:10.769Z,100501.75
2022-12-24T01:17:38.016Z,100501.63
2022-12-24T01:20:07.007Z,100501.50
2022-12-24T01:22:34.281Z,100493.69
2022-12-24T01:25:01.144Z,100496.94
2022-12-24T01:27:28.257Z,100503.88
2022-12-24T01:29:55.194Z,100500.78
2022-12-24T01:32:22.105Z,100499.09
2022-12-24T01:34:48.964Z,100498.69
2022-12-24T01:37:15.824Z,100491.41
2022-12-24T01:39:42.785Z,100497.25
2022-12-24T01:42:42.155Z,100496.34
2022-12-24T01:45:39.797Z,100490.00
2022-12-24T01:48:16.292Z,100486.94
2022-12-24T01:50:43.831Z,100495.47
2022-12-24T01:53:11.533Z,100497.59
2022-12-24T01:55:38.846Z,100494.03
2022-12-24T01:58:08.472Z,100490.09
2022-12-24T02:00:35.554Z,100494.19
2022-12-24T02:03:02.695Z,100486.09
2022-12-24T02:05:36.921Z,100489.53
2022-12-24T02:08:05.797Z,100485.44
2022-12-24T02:10:32.803Z,100482.75
2022-12-24T02:13:01.382Z,100486.53
2022-12-24T02:15:34.976Z,100490.09
2022-12-24T02:18:04.918Z,100485.81
2022-12-24T02:20:50.579Z,100486.00
2022-12-24T02:23:23.553Z,100490.47
2022-12-24T02:26:32.392Z,100489.47
2022-12-24T02:29:23.293Z,100488.50
2022-12-24T02:32:05.137Z,100489.03
2022-12-24T02:34:51.696Z,100486.53
2022-12-24T02:37:25.245Z,100483.97
2022-12-24T02:40:22.388Z,100480.22
2022-12-24T02:42:55.623Z,100486.44
2022-12-24T02:45:28.656Z,100482.97
2022-12-24T02:47:56.313Z,100485.41
2022-12-24T02:50:24.751Z,100489.78
2022-12-24T02:52:51.780Z,100491.09
2022-12-24T02:56:03.536Z,100485.72
2022-12-24T02:58:48.455Z,100483.19
2022-12-24T03:01:46.947Z,100485.63
2022-12-24T03:04:40.501Z,100485.50
2022-12-24T03:07:31.659Z,100490.69
2022-12-24T03:10:21.619Z,100497.81
2022-12-24T03:12:52.463Z,100495.94
2022-12-24T03:15:24.440Z,100499.56
2022-12-24T03:17:54.529Z,100491.03
2022-12-24T03:20:28.740Z,100486.16
2022-12-24T03:22:55.762Z,100486.56
2022-12-24T03:25:25.880Z,100489.13
2022-12-24T03:27:53.434Z,100484.72
2022-12-24T03:30:20.858Z,100479.00
2022-12-24T03:32:47.846Z,100483.28
2022-12-24T03:35:14.797Z,100483.19
2022-12-24T03:37:41.830Z,100490.50
2022-12-24T03:40:09.499Z,100488.94
2022-12-24T03:42:36.460Z,100487.94
2022-12-24T03:45:03.557Z,100492.69
2022-12-24T03:47:31.329Z,100488.50
2022-12-24T03:49:58.297Z,100497.81
2022-12-24T03:52:25.195Z,100492.28
2022-12-24T03:54:52.147Z,100487.28
2022-12-24T03:57:19.040Z,100495.09
2022-12-24T03:59:45.950Z,100486.56
2022-12-24T04:02:12.946Z,100488.75
2022-12-24T04:04:40.044Z,100484.69
2022-12-24T04:07:07.281Z,100491.22
2022-12-24T04:09:34.446Z,100494.59
2022-12-24T04:12:01.406Z,100492.41
2022-12-24T04:14:28.507Z,100483.72
2022-12-24T04:16:55.460Z,100489.41
2022-12-24T04:19:22.340Z,100501.28
2022-12-24T04:21:49.192Z,100501.28
2022-12-24T04:24:16.092Z,100494.97
2022-12-24T04:26:42.976Z,100503.75
2022-12-24T04:29:09.868Z,100513.94
2022-12-24T04:31:36.936Z,100507.06
2022-12-24T04:34:04.007Z,100505.13
2022-12-24T04:36:30.915Z,100495.59
2022-12-24T04:38:57.845Z,100504.50
2022-12-24T04:41:25.170Z,100506.56
2022-12-24T04:43:54.845Z,100499.56
2022-12-24T04:46:25.511Z,100500.13
2022-12-24T04:48:54.406Z,100505.63
2022-12-24T04:51:22.219Z,100498.41
2022-12-24T04:53:49.926Z,100494.06
2022-12-24T04:56:19.560Z,100491.84
2022-12-24T04:58:46.601Z,100496.94
2022-12-24T05:01:17.457Z,100496.00
2022-12-24T05:03:45.170Z,100502.09
2022-12-24T05:06:14.246Z,100506.78
2022-12-24T05:08:41.508Z,100503.81
2022-12-24T05:11:08.459Z,100505.03
2022-12-24T05:13:44.057Z,100510.34
2022-12-24T05:16:14.472Z,100521.38
2022-12-24T05:18:41.693Z,100505.97
2022-12-24T05:21:15.267Z,100510.34
2022-12-24T05:24:00.659Z,100503.00
2022-12-24T05:26:35.620Z,100507.22
2022-12-24T05:29:04.125Z,100513.81
2022-12-24T05:31:33.527Z,100513.56
2022-12-24T05:34:03.622Z,100517.75
2022-12-24T05:36:30.659Z,100519.59
2022-12-24T05:38:57.940Z,100522.47
2022-12-24T05:41:25.589Z,100521.75
2022-12-24T05:43:52.653Z,100521.75
2022-12-24T05:46:21.663Z,100524.69
2022-12-24T05:48:49.804Z,100523.22
2022-12-24T05:51:22.391Z,100521.16
2022-12-24T05:53:50.936Z,100524.50
2022-12-24T05:56:21.526Z,100527.47
2022-12-24T05:58:48.642Z,100519.09
2022-12-24T06:01:16.195Z,100520.38
2022-12-24T06:03:43.151Z,100522.03
2022-12-24T06:06:13.461Z,100527.97
2022-12-24T06:08:41.810Z,100525.00
2022-12-24T06:11:11.618Z,100525.03
2022-12-24T06:13:39.502Z,100530.53
2022-12-24T06:16:09.092Z,100520.91
2022-12-24T06:18:36.831Z,100519.81
2022-12-24T06:21:05.535Z,100516.03
2022-12-24T06:23:34.656Z,100510.69
2022-12-24T06:26:02.798Z,100508.03
2022-12-24T06:28:31.828Z,100511.84
2022-12-24T06:31:02.951Z,100509.44
2022-12-24T06:33:31.910Z,100520.59
2022-12-24T06:35:59.108Z,100518.31
2022-12-24T06:38:26.212Z,100523.31
2022-12-24T06:40:53.309Z,100526.19
2022-12-24T06:43:20.177Z,100522.59
2022-12-24T06:45:47.900Z,100528.75
2022-12-24T06:48:15.851Z,100533.97
2022-12-24T06:50:43.059Z,100537.47
2022-12-24T06:53:10.658Z,100533.56
2022-12-24T06:55:38.228Z,100536.53
2022-12-24T06:58:05.211Z,100535.50
2022-12-24T07:00:32.315Z,100537.31
2022-12-24T07:02:59.257Z,100542.13
2022-12-24T07:05:26.238Z,100538.34
2022-12-24T07:07:53.174Z,100549.84
2022-12-24T07:10:21.719Z,100541.34
2022-12-24T07:12:48.956Z,100546.16
2022-12-24T07:15:16.978Z,100539.53
2022-12-24T07:17:44.130Z,100535.22
2022-12-24T07:20:14.978Z,100535.00
2022-12-24T07:22:42.897Z,100527.59
2022-12-24T07:25:11.090Z,100524.53
2022-12-24T07:27:39.294Z,100533.97
2022-12-24T07:30:07.355Z,100535.63
2022-12-24T07:32:34.411Z,100532.19
2022-12-24T07:35:01.536Z,100531.91
2022-12-24T07:37:28.524Z,100524.94
2022-12-24T07:39:55.663Z,100534.78
2022-12-24T07:42:22.559Z,100529.56
2022-12-24T07:44:49.588Z,100529.91
2022-12-24T07:47:16.479Z,100531.09
2022-12-24T07:49:43.523Z,100536.06
2022-12-24T07:52:10.526Z,100525.91
2022-12-24T07:54:37.479Z,100526.91
2022-12-24T07:57:04.453Z,100522.53
2022-12-24T07:59:31.316Z,100527.44
2022-12-24T08:01:58.639Z,100519.28
2022-12-24T08:04:25.616Z,100516.63
2022-12-24T08:06:52.493Z,100514.25
2022-12-24T08:09:19.614Z,100511.16
2022-12-24T08:11:51.911Z,100513.16
2022-12-24T08:14:20.060Z,100511.88
2022-12-24T08:16:47.133Z,100515.63
2022-12-24T08:19:14.111Z,100513.00
2022-12-24T08:21:41.032Z,100509.75
2022-12-24T08:24:08.307Z,100511.84
2022-12-24T08:26:35.331Z,100498.34
2022-12-24T08:29:03.934Z,100496.69
2022-12-24T08:31:31.496Z,100492.81
2022-12-24T08:33:58.505Z,100496.69
2022-12-24T08:36:25.474Z,100492.63
2022-12-24T08:38:52.397Z,100494.88
2022-12-24T08:41:19.272Z,100501.66
2022-12-24T08:43:46.185Z,100485.66
2022-12-24T08:46:13.128Z,100492.72
2022-12-24T08:48:40.113Z,100484.53
2022-12-24T08:51:09.100Z,100494.19
2022-12-24T08:53:36.083Z,100490.34
2022-12-24T08:56:05.049Z,100497.97
2022-12-24T08:58:32.509Z,100496.81
2022-12-24T09:01:00.108Z,100504.91
2022-12-24T09:03:28.314Z,100498.19
2022-12-24T09:05:55.840Z,100496.03
2022-12-24T09:08:22.874Z,100489.44
2022-12-24T09:10:49.790Z,100495.09
2022-12-24T09:13:16.744Z,100492.47
2022-12-24T09:15:52.350Z,100489.38
2022-12-24T09:18:19.206Z,100485.56
2022-12-24T09:20:47.069Z,100494.50
2022-12-24T09:23:14.804Z,100492.31
2022-12-24T09:25:43.424Z,100487.22
2022-12-24T09:28:10.772Z,100483.94
2022-12-24T09:30:38.031Z,100481.88
2022-12-24T09:33:04.909Z,100485.91
2022-12-24T09:35:32.069Z,100479.34
2022-12-24T09:38:05.092Z,100476.16
2022-12-24T09:40:41.009Z,100469.81
2022-12-24T09:43:20.281Z,100466.09
2022-12-24T09:45:54.638Z,100456.03
2022-12-24T09:48:28.267Z,100457.53
2022-12-24T09:51:04.982Z,100451.88
2022-12-24T09:53:37.561Z,100457.56
2022-12-24T09:56:12.905Z,100456.78
2022-12-24T09:58:44.827Z,100447.47
2022-12-24T10:01:20.717Z,100439.78
2022-12-24T10:03:48.271Z,100441.72
2022-12-24T10:06:25.135Z,100445.97
2022-12-24T10:09:10.040Z,100439.09
2022-12-24T10:11:49.847Z,100441.56
2022-12-24T10:14:47.655Z,100414.38
2022-12-24T10:17:41.648Z,100426.66
2022-12-24T10:20:28.713Z,100425.94
2022-12-24T10:23:07.718Z,100414.25
2022-12-24T10:25:44.545Z,100423.34
2022-12-24T10:28:18.266Z,100421.09
2022-12-24T10:30:49.692Z,100408.91
2022-12-24T10:33:22.531Z,100421.75
2022-12-24T10:35:54.357Z,100412.72
2022-12-24T10:38:21.342Z,100420.53
2022-12-24T10:40:51.739Z,100414.47
2022-12-24T10:43:24.647Z,100415.06
2022-12-24T10:46:01.727Z,100419.16
2022-12-24T10:48:50.355Z,100418.53
2022-12-24T10:51:22.788Z,100413.31
2022-12-24T10:53:51.748Z,100423.25
2022-12-24T10:56:21.041Z,100417.88
2022-12-24T10:58:54.000Z,100418.03
2022-12-24T11:01:48.288Z,100417.19
2022-12-24T11:04:18.048Z,100407.16
2022-12-24T11:07:00.085Z,100407.84
2022-12-24T11:09:28.870Z,100405.78
2022-12-24T11:12:02.469Z,100412.09
2022-12-24T11:14:35.715Z,100410.34
2022-12-24T11:17:03.409Z,100411.69
2022-12-24T11:19:41.581Z,100401.44
2022-12-24T11:22:20.676Z,100398.94
2022-12-24T11:25:18.931Z,100393.06
2022-12-24T11:27:50.819Z,100400.53
2022-12-24T11:30:24.852Z,100394.47
2022-12-24T11:33:18.944Z,100390.44
2022-12-24T11:35:53.154Z,100401.91
2022-12-24T11:38:23.225Z,100390.28
2022-12-24T11:40:58.918Z,100394.22
2022-12-24T11:43:44.389Z,100396.13
2022-12-24T11:46:13.716Z,100397.19
2022-12-24T11:48:40.689Z,100396.81
2022-12-24T11:51:19.675Z,100402.53
2022-12-24T11:53:56.551Z,100406.81
2022-12-24T11:56:32.859Z,100408.78
2022-12-24T11:59:09.596Z,100403.69
2022-12-24T12:01:48.622Z,100408.34
2022-12-24T12:04:27.911Z,100411.56
2022-12-24T12:07:01.946Z,100399.13
2022-12-24T12:09:32.659Z,100398.13
2022-12-24T12:12:08.239Z,100403.84
2022-12-24T12:14:49.069Z,100395.44
2022-12-24T12:17:26.741Z,100398.75
2022-12-24T12:20:19.772Z,100387.81
2022-12-24T12:23:05.432Z,100393.84
2022-12-24T12:25:51.517Z,100393.91
2022-12-24T12:28:36.616Z,100398.16
2022-12-24T12:31:16.455Z,100390.94
2022-12-24T12:33:53.519Z,100391.16
2022-12-24T12:36:30.379Z,100388.63
2022-12-24T12:38:57.304Z,100401.44
2022-12-24T12:41:31.266Z,100395.88
2022-12-24T12:44:04.127Z,100404.00
2022-12-24T12:46:57.209Z,100409.41
2022-12-24T12:49:56.087Z,100409.84
2022-12-24T12:52:52.509Z,100401.25
2022-12-24T12:55:56.255Z,100404.06
2022-12-24T12:58:41.454Z,100416.97
2022-12-24T13:01:33.264Z,100409.59
2022-12-24T13:04:12.223Z,100402.00
2022-12-24T13:06:57.636Z,100410.81
2022-12-24T13:09:47.957Z,100409.16
2022-12-24T13:12:35.368Z,100414.66
2022-12-24T13:15:19.904Z,100420.66
2022-12-24T13:18:01.715Z,100426.31
2022-12-24T13:20:31.346Z,100412.47
2022-12-24T13:23:02.215Z,100410.59
2022-12-24T13:25:39.664Z,100408.88
2022-12-24T13:28:24.853Z,100400.84
2022-12-24T13:31:11.758Z,100410.47
2022-12-24T13:33:38.679Z,100399.09
2022-12-24T13:36:11.072Z,100397.97
2022-12-24T13:38:46.871Z,100408.31
2022-12-24T13:41:38.263Z,100412.75
2022-12-24T13:44:17.974Z,100407.25
2022-12-24T13:47:00.101Z,100411.16
2022-12-24T13:49:52.649Z,100407.97
2022-12-24T13:52:34.498Z,100405.44
2022-12-24T13:55:15.883Z,100405.53
2022-12-24T13:57:54.742Z,100406.41
2022-12-24T14:00:21.598Z,100403.66
2022-12-24T14:02:56.736Z,100414.47
2022-12-24T14:05:37.858Z,100422.06
2022-12-24T14:08:10.301Z,100421.19
2022-12-24T14:10:42.553Z,100416.69
2022-12-24T14:13:40.556Z,100425.09
2022-12-24T14:16:13.423Z,100418.25
2022-12-24T14:18:43.688Z,100430.75
2022-12-24T14:21:23.184Z,100435.00
2022-12-24T14:23:57.689Z,100431.56
2022-12-24T14:26:30.235Z,100427.72
2022-12-24T14:29:02.353Z,100423.53
2022-12-24T14:31:29.385Z,100421.91
2022-12-24T14:34:12.928Z,100424.69
2022-12-24T14:36:42.897Z,100419.88
2022-12-24T14:39:17.211Z,100435.81
2022-12-24T14:41:57.064Z,100430.66
2022-12-24T14:44:36.721Z,100437.09
2022-12-24T14:47:41.390Z,100437.25
2022-12-24T14:50:08.274Z,100443.41
2022-12-24T14:53:04.731Z,100449.63
2022-12-24T14:55:47.067Z,100451.44
2022-12-24T14:58:23.064Z,100456.69
2022-12-24T15:00:51.022Z,100452.66
2022-12-24T15:03:21.385Z,100454.69
2022-12-24T15:05:54.608Z,100453.19
2022-12-24T15:08:28.954Z,100452.28
2022-12-24T15:11:01.663Z,100453.84
2022-12-24T15:13:41.698Z,100459.13
2022-12-24T15:16:11.855Z,100463.63
2022-12-24T15:18:46.438Z,100462.81
2022-12-24T15:21:33.685Z,100457.44
2022-12-24T15:24:01.089Z,100463.44
2022-12-24T15:26:30.721Z,100466.63
2022-12-24T15:29:03.828Z,100473.09
2022-12-24T15:31:31.771Z,100473.06
2022-12-24T15:33:59.568Z,100465.94
2022-12-24T15:36:35.455Z,100472.94
2022-12-24T15:39:06.486Z,100468.66
2022-12-24T15:42:00.162Z,100482.78
2022-12-24T15:44:38.933Z,100473.13
2022-12-24T15:47:14.709Z,100471.25
2022-12-24T15:49:46.951Z,100482.59
2022-12-24T15:52:17.436Z,100486.88
2022-12-24T15:54:48.529Z,100494.97
2022-12-24T15:57:29.865Z,100484.28
2022-12-24T15:59:58.469Z,100486.91
2022-12-24T16:02:33.059Z,100484.22
2022-12-24T16:05:18.702Z,100493.22
2022-12-24T16:08:21.816Z,100498.28
2022-12-24T16:10:53.054Z,100495.91
2022-12-24T16:13:28.535Z,100504.63
2022-12-24T16:16:02.205Z,100498.91
2022-12-24T16:18:38.478Z,100497.00
2022-12-24T16:21:07.513Z,100506.25
2022-12-24T16:23:45.974Z,100502.94
2022-12-24T16:26:13.139Z,100505.06
2022-12-24T16:28:40.119Z,100506.03
2022-12-24T16:31:07.207Z,100501.75
2022-12-24T16:33:34.318Z,100504.38
2022-12-24T16:36:01.261Z,100512.06
2022-12-24T16:38:48.111Z,100514.69
2022-12-24T16:41:15.311Z,100506.69
2022-12-24T16:43:51.314Z,100516.31
2022-12-24T16:46:18.762Z,100506.72
2022-12-24T16:48:48.652Z,100515.72
2022-12-24T16:51:15.593Z,100513.41
2022-12-24T16:53:42.849Z,100509.00
2022-12-24T16:56:09.927Z,100502.63
2022-12-24T16:58:36.945Z,100511.50
2022-12-24T17:01:08.784Z,100509.53
2022-12-24T17:03:36.395Z,100513.09
2022-12-24T17:06:07.677Z,100508.75
2022-12-24T17:08:34.799Z,100513.53
2022-12-24T17:11:01.700Z,100517.13
2022-12-24T17:13:28.684Z,100514.53
2022-12-24T17:15:55.637Z,100522.59
2022-12-24T17:18:22.562Z,100516.41
2022-12-24T17:20:58.912Z,100515.56
2022-12-24T17:23:26.117Z,100516.38
2022-12-24T17:25:53.068Z,100522.44
2022-12-24T17:28:20.087Z,100522.84
2022-12-24T17:30:47.210Z,100520.41
2022-12-24T17:33:15.001Z,100512.94
2022-12-24T17:35:43.871Z,100524.19
2022-12-24T17:38:10.739Z,100524.13
2022-12-24T17:40:37.677Z,100529.16
2022-12-24T17:43:04.599Z,100525.81
2022-12-24T17:45:31.570Z,100524.03
2022-12-24T17:47:58.468Z,100523.19
2022-12-24T17:50:25.372Z,100529.22
2022-12-24T17:52:52.468Z,100524.00
2022-12-24T17:55:19.416Z,100521.47
2022-12-24T17:57:46.372Z,100521.75
2022-12-24T18:00:14.122Z,100521.44
2022-12-24T18:02:41.219Z,100519.53
2022-12-24T18:05:08.506Z,100524.22
2022-12-24T18:07:35.605Z,100520.81
2022-12-24T18:10:03.191Z,100518.94
2022-12-24T18:12:30.285Z,100511.38
2022-12-24T18:14:57.320Z,100513.13
2022-12-24T18:17:24.358Z,100516.41
2022-12-24T18:19:51.552Z,100511.00
2022-12-24T18:22:18.419Z,100518.88
2022-12-24T18:24:45.372Z,100512.72
2022-12-24T18:27:12.324Z,100514.44
2022-12-24T18:29:41.693Z,100512.94
2022-12-24T18:32:09.134Z,100520.00
2022-12-24T18:34:36.151Z,100526.59
2022-12-24T18:37:03.095Z,100522.97
2022-12-24T18:39:29.956Z,100523.09
2022-12-24T18:41:56.893Z,100535.31
2022-12-24T18:44:25.536Z,100532.28
2022-12-24T18:46:52.949Z,100531.38
2022-12-24T18:49:20.129Z,100523.28
2022-12-24T18:51:47.154Z,100523.66
2022-12-24T18:54:14.937Z,100526.63
2022-12-24T18:56:41.870Z,100522.06
2022-12-24T18:59:09.767Z,100519.63
2022-12-24T19:01:36.962Z,100517.75
2022-12-24T19:04:04.280Z,100524.00
2022-12-24T19:06:31.398Z,100522.41
2022-12-24T19:09:00.140Z,100524.19
2022-12-24T19:11:30.539Z,100524.00
2022-12-24T19:13:58.274Z,100530.63
2022-12-24T19:16:26.444Z,100532.53
2022-12-24T19:18:53.611Z,100535.91
2022-12-24T19:21:20.988Z,100535.78
2022-12-24T19:23:49.010Z,100539.31
2022-12-24T19:26:17.779Z,100542.41
2022-12-24T19:28:45.720Z,100554.78
2022-12-24T19:31:15.890Z,100542.16
2022-12-24T19:33:45.248Z,100564.19
2022-12-24T19:36:16.131Z,100554.66
2022-12-24T19:38:43.275Z,100556.91
2022-12-24T19:41:16.607Z,100559.56
2022-12-24T19:43:49.842Z,100560.66
2022-12-24T19:46:23.054Z,100559.53
2022-12-24T19:48:56.321Z,100558.72
2022-12-24T19:51:24.247Z,100560.97
2022-12-24T19:53:52.470Z,100564.91
2022-12-24T19:56:21.699Z,100563.13
2022-12-24T19:58:49.107Z,100563.06
2022-12-24T20:01:23.456Z,100568.44
2022-12-24T20:03:52.236Z,100562.22
2022-12-24T20:06:22.908Z,100561.34
2022-12-24T20:08:50.253Z,100563.91
2022-12-24T20:11:19.884Z,100570.81
2022-12-24T20:13:47.090Z,100565.50
2022-12-24T20:16:23.050Z,100566.53
2022-12-24T20:18:58.434Z,100571.72
2022-12-24T20:21:25.942Z,100573.50
2022-12-24T20:23:53.506Z,100580.53
2022-12-24T20:26:23.773Z,100589.38
2022-12-24T20:28:51.496Z,100584.03
2022-12-24T20:31:24.772Z,100584.97
2022-12-24T20:33:52.193Z,100575.28
2022-12-24T20:36:20.820Z,100579.69
2022-12-24T20:38:47.920Z,100568.22
2022-12-24T20:41:18.704Z,100576.09
2022-12-24T20:43:48.647Z,100578.66
2022-12-24T20:46:18.306Z,100579.59
2022-12-24T20:48:45.267Z,100584.97
2022-12-24T20:51:23.865Z,100577.88
2022-12-24T20:53:57.259Z,100578.91
2022-12-24T20:56:24.953Z,100582.47
2022-12-24T20:58:52.358Z,100580.72
2022-12-24T21:01:22.925Z,100580.72
2022-12-24T21:03:51.087Z,100575.56
2022-12-24T21:06:19.544Z,100575.44
2022-12-24T21:08:49.512Z,100574.50
2022-12-24T21:11:34.983Z,100584.25
2022-12-24T21:14:02.345Z,100580.72
2022-12-24T21:16:33.979Z,100571.94
2022-12-24T21:19:01.066Z,100573.75
2022-12-24T21:21:28.236Z,100583.34
2022-12-24T21:23:55.271Z,100572.84
2022-12-24T21:26:22.152Z,100573.81
2022-12-24T21:28:50.494Z,100568.56
2022-12-24T21:31:17.890Z,100569.47
2022-12-24T21:33:45.386Z,100566.00
2022-12-24T21:36:13.639Z,100570.44
2022-12-24T21:38:41.551Z,100559.03
2022-12-24T21:41:16.552Z,100557.25
2022-12-24T21:43:43.581Z,100558.09
2022-12-24T21:46:20.088Z,100561.63
2022-12-24T21:49:05.717Z,100565.16
2022-12-24T21:51:33.310Z,100580.94
2022-12-24T21:54:18.557Z,100581.81
2022-12-24T21:57:04.132Z,100589.75
2022-12-24T21:59:31.431Z,100588.91
2022-12-24T22:01:59.221Z,100595.06
2022-12-24T22:04:26.591Z,100588.09
2022-12-24T22:07:12.549Z,100584.59
2022-12-24T22:09:58.753Z,100586.34
2022-12-24T22:12:29.575Z,100589.91
2022-12-24T22:14:56.578Z,100582.91
2022-12-24T22:17:25.688Z,100580.25
2022-12-24T22:19:54.044Z,100577.69
2022-12-24T22:22:21.634Z,100575.91
2022-12-24T22:24:48.593Z,100583.81
2022-12-24T22:27:15.445Z,100580.31
2022-12-24T22:29:42.331Z,100589.94
2022-12-24T22:32:09.802Z,100586.41
2022-12-24T22:34:36.750Z,100589.09
2022-12-24T22:37:03.720Z,100596.09
2022-12-24T22:39:30.689Z,100605.75
2022-12-24T22:41:58.306Z,100603.13
2022-12-24T22:44:25.719Z,100610.16
2022-12-24T22:46:52.787Z,100611.00
2022-12-24T22:49:19.789Z,100622.38
2022-12-24T22:51:46.667Z,100613.63
2022-12-24T22:54:13.653Z,100615.34
2022-12-24T22:56:41.549Z,100610.09
2022-12-24T22:59:12.469Z,100611.88
2022-12-24T23:01:43.268Z,100613.63
2022-12-24T23:04:11.379Z,100613.63
2022-12-24T23:06:39.280Z,100600.53
2022-12-24T23:09:08.798Z,100603.19
2022-12-24T23:11:35.957Z,100605.81
2022-12-24T23:14:21.468Z,100613.69
2022-12-24T23:16:48.369Z,100630.31
2022-12-24T23:19:15.682Z,100618.94
2022-12-24T23:21:42.824Z,100630.31
2022-12-24T23:24:11.203Z,100626.75
2022-12-24T23:26:38.591Z,100629.44
2022-12-24T23:29:06.726Z,100637.31
2022-12-24T23:31:35.027Z,100639.06
2022-12-24T23:34:02.505Z,100640.84
2022-12-24T23:36:29.737Z,100639.97
2022-12-24T23:38:57.777Z,100632.94
2022-12-24T23:41:24.855Z,100635.56
2022-12-24T23:43:51.833Z,100641.72
2022-12-24T23:46:19.757Z,100647.81
2022-12-24T23:48:47.229Z,100651.34
2022-12-24T23:51:16.821Z,100646.97
2022-12-24T23:53:44.234Z,100650.47
2022-12-24T23:56:12.179Z,100652.22
2022-12-24T23:58:41.052Z,100667.09
